createdAt,value
2019-02-28T00:00:46.364Z,100435.49
2019-02-28T00:01:31.484Z,100437.52
2019-02-28T00:02:10.814Z,100437.52
2019-02-28T00:02:46.207Z,100432.20
2019-02-28T00:03:21.872Z,100432.59
2019-02-28T00:03:58.311Z,100423.38
2019-02-28T00:04:34.444Z,100431.00
2019-02-28T00:05:09.822Z,100431.00
2019-02-28T00:05:45.234Z,100430.20
2019-02-28T00:06:21.029Z,100428.23
2019-02-28T00:06:56.409Z,100428.23
2019-02-28T00:07:31.795Z,100421.30
2019-02-28T00:08:07.286Z,100424.31
2019-02-28T00:08:42.942Z,100421.74
2019-02-28T00:09:18.679Z,100429.87
2019-02-28T00:09:57.340Z,100430.28
2019-02-28T00:10:31.695Z,100428.16
2019-02-28T00:11:07.357Z,100419.66
2019-02-28T00:11:42.760Z,100424.39
2019-02-28T00:12:18.451Z,100424.39
2019-02-28T00:12:53.843Z,100414.90
2019-02-28T00:13:29.237Z,100414.90
2019-02-28T00:14:04.641Z,100424.32
2019-02-28T00:14:40.107Z,100421.50
2019-02-28T00:15:15.536Z,100421.50
2019-02-28T00:15:50.959Z,100411.75
2019-02-28T00:16:26.359Z,100411.75
2019-02-28T00:17:02.047Z,100417.42
2019-02-28T00:17:42.760Z,100422.07
2019-02-28T00:18:15.542Z,100413.66
2019-02-28T00:18:52.302Z,100416.52
2019-02-28T00:19:27.706Z,100416.52
2019-02-28T00:20:06.392Z,100417.03
2019-02-28T00:20:41.782Z,100413.06
2019-02-28T00:21:17.315Z,100419.52
2019-02-28T00:21:52.994Z,100411.45
2019-02-28T00:22:28.408Z,100411.45
2019-02-28T00:23:04.161Z,100423.38
2019-02-28T00:23:39.661Z,100417.26
2019-02-28T00:24:15.063Z,100417.26
2019-02-28T00:24:50.486Z,100414.73
2019-02-28T00:25:25.908Z,100414.73
2019-02-28T00:26:01.887Z,100416.82
2019-02-28T00:26:37.291Z,100415.12
2019-02-28T00:27:12.970Z,100415.12
2019-02-28T00:27:48.585Z,100412.55
2019-02-28T00:28:25.935Z,100403.98
2019-02-28T00:29:01.466Z,100412.82
2019-02-28T00:29:36.865Z,100410.05
2019-02-28T00:30:12.683Z,100410.05
2019-02-28T00:30:48.071Z,100408.77
2019-02-28T00:31:23.744Z,100412.98
2019-02-28T00:31:59.138Z,100405.72
2019-02-28T00:32:34.537Z,100410.76
2019-02-28T00:33:09.927Z,100412.07
2019-02-28T00:33:45.817Z,100412.12
2019-02-28T00:34:21.248Z,100412.12
2019-02-28T00:34:57.249Z,100405.28
2019-02-28T00:35:32.902Z,100407.91
2019-02-28T00:36:08.628Z,100409.75
2019-02-28T00:36:44.034Z,100409.75
2019-02-28T00:37:19.459Z,100401.56
2019-02-28T00:37:56.674Z,100403.61
2019-02-28T00:38:32.245Z,100400.36
2019-02-28T00:39:07.747Z,100407.53
2019-02-28T00:39:43.395Z,100402.44
2019-02-28T00:40:19.104Z,100402.44
2019-02-28T00:40:54.532Z,100403.14
2019-02-28T00:41:29.945Z,100403.88
2019-02-28T00:42:05.697Z,100397.88
2019-02-28T00:42:41.355Z,100406.78
2019-02-28T00:43:16.766Z,100406.78
2019-02-28T00:43:56.857Z,100402.95
2019-02-28T00:44:31.442Z,100398.17
2019-02-28T00:45:07.369Z,100399.11
2019-02-28T00:45:42.781Z,100402.09
2019-02-28T00:46:18.263Z,100399.17
2019-02-28T00:46:53.920Z,100404.20
2019-02-28T00:47:29.596Z,100404.20
2019-02-28T00:48:05.004Z,100402.23
2019-02-28T00:48:40.437Z,100403.94
2019-02-28T00:49:15.946Z,100400.31
2019-02-28T00:49:51.380Z,100393.05
2019-02-28T00:50:27.822Z,100395.11
2019-02-28T00:51:03.930Z,100399.25
2019-02-28T00:51:39.372Z,100399.25
2019-02-28T00:52:15.025Z,100401.77
2019-02-28T00:52:50.427Z,100399.17
2019-02-28T00:53:26.085Z,100402.65
2019-02-28T00:54:01.543Z,100398.32
2019-02-28T00:54:42.981Z,100398.32
2019-02-28T00:55:15.507Z,100395.63
2019-02-28T00:55:51.279Z,100395.72
2019-02-28T00:56:26.714Z,100398.76
2019-02-28T00:57:02.437Z,100397.03
2019-02-28T00:57:37.845Z,100388.78
2019-02-28T00:58:13.241Z,100391.80
2019-02-28T00:58:48.731Z,100390.21
2019-02-28T00:59:24.110Z,100390.21
2019-02-28T01:00:04.870Z,100382.84
2019-02-28T01:00:38.180Z,100391.70
2019-02-28T01:01:13.587Z,100391.70
2019-02-28T01:01:49.288Z,100387.17
2019-02-28T01:02:24.835Z,100387.17
2019-02-28T01:03:00.541Z,100386.59
2019-02-28T01:03:36.253Z,100386.59
2019-02-28T01:04:11.904Z,100382.95
2019-02-28T01:04:47.328Z,100392.05
2019-02-28T01:05:22.809Z,100392.05
2019-02-28T01:05:58.560Z,100385.48
2019-02-28T01:06:35.426Z,100380.88
2019-02-28T01:07:13.266Z,100389.07
2019-02-28T01:07:48.949Z,100382.69
2019-02-28T01:08:24.588Z,100386.09
2019-02-28T01:09:00.121Z,100386.64
2019-02-28T01:09:35.647Z,100385.23
2019-02-28T01:10:11.825Z,100385.23
2019-02-28T01:10:47.483Z,100374.26
2019-02-28T01:11:23.144Z,100380.11
2019-02-28T01:11:59.212Z,100375.63
2019-02-28T01:12:34.848Z,100380.03
2019-02-28T01:13:10.382Z,100380.03
2019-02-28T01:13:46.040Z,100381.38
2019-02-28T01:14:21.847Z,100376.66
2019-02-28T01:14:57.273Z,100376.66
2019-02-28T01:15:33.030Z,100374.20
2019-02-28T01:16:08.405Z,100380.03
2019-02-28T01:16:43.882Z,100378.31
2019-02-28T01:17:19.545Z,100374.88
2019-02-28T01:17:57.218Z,100374.88
2019-02-28T01:18:34.462Z,100379.27
2019-02-28T01:19:10.170Z,100373.59
2019-02-28T01:19:45.688Z,100373.59
2019-02-28T01:20:21.196Z,100376.17
2019-02-28T01:20:56.605Z,100380.11
2019-02-28T01:21:32.051Z,100376.28
2019-02-28T01:22:07.443Z,100368.56
2019-02-28T01:22:42.839Z,100375.84
2019-02-28T01:23:18.533Z,100375.84
2019-02-28T01:23:53.907Z,100371.19
2019-02-28T01:24:34.521Z,100375.14
2019-02-28T01:25:07.365Z,100369.66
2019-02-28T01:25:42.781Z,100373.06
2019-02-28T01:26:18.448Z,100373.06
2019-02-28T01:26:53.847Z,100370.56
2019-02-28T01:27:29.351Z,100360.66
2019-02-28T01:28:04.754Z,100365.89
2019-02-28T01:28:40.178Z,100366.84
2019-02-28T01:29:15.912Z,100359.13
2019-02-28T01:29:51.305Z,100361.73
2019-02-28T01:30:27.131Z,100360.03
2019-02-28T01:31:02.545Z,100360.03
2019-02-28T01:31:38.191Z,100359.89
2019-02-28T01:32:15.651Z,100359.89
2019-02-28T01:32:51.111Z,100356.58
2019-02-28T01:33:26.524Z,100364.30
2019-02-28T01:34:02.286Z,100357.16
2019-02-28T01:34:37.684Z,100365.17
2019-02-28T01:35:13.090Z,100365.17
2019-02-28T01:35:48.508Z,100361.56
2019-02-28T01:36:24.172Z,100360.30
2019-02-28T01:36:59.861Z,100359.13
2019-02-28T01:37:35.262Z,100359.13
2019-02-28T01:38:10.654Z,100352.31
2019-02-28T01:38:46.092Z,100352.31
2019-02-28T01:39:21.749Z,100357.89
2019-02-28T01:39:57.146Z,100354.06
2019-02-28T01:40:35.128Z,100351.79
2019-02-28T01:41:11.175Z,100349.66
2019-02-28T01:41:47.152Z,100353.52
2019-02-28T01:42:22.544Z,100353.52
2019-02-28T01:42:57.958Z,100359.37
2019-02-28T01:43:33.354Z,100353.41
2019-02-28T01:44:08.755Z,100354.13
2019-02-28T01:44:44.444Z,100354.13
2019-02-28T01:45:19.856Z,100348.74
2019-02-28T01:45:55.598Z,100353.62
2019-02-28T01:46:31.356Z,100317.69
2019-02-28T01:47:06.763Z,100340.59
2019-02-28T01:47:42.584Z,100357.89
2019-02-28T01:48:18.069Z,100357.89
2019-02-28T01:48:54.538Z,100352.61
2019-02-28T01:49:30.529Z,100352.61
2019-02-28T01:50:06.365Z,100341.81
2019-02-28T01:50:42.028Z,100341.09
2019-02-28T01:51:17.425Z,100341.09
2019-02-28T01:51:53.507Z,100348.09
2019-02-28T01:52:28.969Z,100348.09
2019-02-28T01:53:04.363Z,100337.49
2019-02-28T01:53:39.787Z,100337.49
2019-02-28T01:54:15.459Z,100337.55
2019-02-28T01:54:50.859Z,100337.30
2019-02-28T01:55:29.382Z,100337.06
2019-02-28T01:56:03.453Z,100336.58
2019-02-28T01:56:39.121Z,100336.58
2019-02-28T01:57:14.840Z,100331.92
2019-02-28T01:57:50.251Z,100341.66
2019-02-28T01:58:26.236Z,100336.98
2019-02-28T01:59:01.935Z,100330.96
2019-02-28T01:59:37.341Z,100338.10
2019-02-28T02:00:14.460Z,100333.61
2019-02-28T02:00:49.880Z,100333.61
2019-02-28T02:01:25.290Z,100334.90
2019-02-28T02:02:05.703Z,100334.19
2019-02-28T02:02:38.973Z,100332.44
2019-02-28T02:03:14.471Z,100337.64
2019-02-28T02:03:49.869Z,100337.64
2019-02-28T02:04:25.583Z,100343.66
2019-02-28T02:05:01.033Z,100329.65
2019-02-28T02:05:36.682Z,100330.80
2019-02-28T02:06:12.133Z,100330.80
2019-02-28T02:06:48.897Z,100331.75
2019-02-28T02:07:24.555Z,100331.75
2019-02-28T02:08:00.046Z,100329.43
2019-02-28T02:08:37.814Z,100330.72
2019-02-28T02:09:12.913Z,100330.72
2019-02-28T02:09:48.406Z,100326.42
2019-02-28T02:10:24.086Z,100314.92
2019-02-28T02:10:59.523Z,100324.14
2019-02-28T02:11:34.911Z,100324.14
2019-02-28T02:12:10.619Z,100318.81
2019-02-28T02:12:46.264Z,100318.81
2019-02-28T02:13:21.671Z,100317.63
2019-02-28T02:13:57.426Z,100315.09
2019-02-28T02:14:32.847Z,100310.38
2019-02-28T02:15:08.870Z,100310.38
2019-02-28T02:15:44.283Z,100314.08
2019-02-28T02:16:19.720Z,100313.97
2019-02-28T02:16:55.125Z,100315.86
2019-02-28T02:17:32.229Z,100315.86
2019-02-28T02:18:09.324Z,100316.73
2019-02-28T02:18:44.849Z,100316.73
2019-02-28T02:19:20.255Z,100312.88
2019-02-28T02:19:55.860Z,100306.52
2019-02-28T02:20:31.465Z,100308.63
2019-02-28T02:21:06.940Z,100306.06
2019-02-28T02:21:42.332Z,100310.77
2019-02-28T02:22:17.734Z,100302.55
2019-02-28T02:22:53.915Z,100308.14
2019-02-28T02:23:29.590Z,100304.36
2019-02-28T02:24:05.098Z,100304.22
2019-02-28T02:24:40.494Z,100294.92
2019-02-28T02:25:15.985Z,100297.95
2019-02-28T02:25:51.378Z,100296.12
2019-02-28T02:26:26.815Z,100300.15
2019-02-28T02:27:02.482Z,100300.15
2019-02-28T02:27:38.174Z,100295.94
2019-02-28T02:28:13.841Z,100295.94
2019-02-28T02:28:49.248Z,100296.81
2019-02-28T02:29:24.638Z,100293.34
2019-02-28T02:30:00.163Z,100293.66
2019-02-28T02:30:35.988Z,100290.73
2019-02-28T02:31:11.398Z,100292.76
2019-02-28T02:31:46.819Z,100289.09
2019-02-28T02:32:22.176Z,100287.37
2019-02-28T02:32:58.168Z,100287.37
2019-02-28T02:33:33.959Z,100293.20
2019-02-28T02:34:10.465Z,100293.20
2019-02-28T02:34:45.835Z,100283.65
2019-02-28T02:35:22.839Z,100283.65
2019-02-28T02:35:58.214Z,100291.66
2019-02-28T02:36:35.667Z,100291.52
2019-02-28T02:37:11.337Z,100289.45
2019-02-28T02:37:46.745Z,100292.23
2019-02-28T02:38:22.930Z,100295.36
2019-02-28T02:38:58.336Z,100295.36
2019-02-28T02:39:34.744Z,100289.09
2019-02-28T02:40:10.593Z,100288.88
2019-02-28T02:40:46.087Z,100295.33
2019-02-28T02:41:21.774Z,100286.81
2019-02-28T02:41:57.187Z,100286.81
2019-02-28T02:42:32.764Z,100283.27
2019-02-28T02:43:08.172Z,100283.27
2019-02-28T02:43:43.609Z,100279.16
2019-02-28T02:44:19.049Z,100280.02
2019-02-28T02:44:54.454Z,100279.89
2019-02-28T02:45:30.148Z,100281.02
2019-02-28T02:46:05.593Z,100281.02
2019-02-28T02:46:40.992Z,100284.98
2019-02-28T02:47:16.394Z,100279.78
2019-02-28T02:47:52.094Z,100275.45
2019-02-28T02:48:27.764Z,100269.81
2019-02-28T02:49:03.230Z,100278.41
2019-02-28T02:49:38.930Z,100282.03
2019-02-28T02:50:15.001Z,100277.30
2019-02-28T02:50:51.143Z,100282.58
2019-02-28T02:51:26.615Z,100282.58
2019-02-28T02:52:03.676Z,100280.89
2019-02-28T02:52:39.115Z,100277.05
2019-02-28T02:53:14.538Z,100277.05
2019-02-28T02:53:49.969Z,100281.81
2019-02-28T02:54:25.657Z,100281.81
2019-02-28T02:55:01.150Z,100275.94
2019-02-28T02:55:36.817Z,100270.77
2019-02-28T02:56:12.888Z,100272.84
2019-02-28T02:56:48.602Z,100273.36
2019-02-28T02:57:24.033Z,100262.34
2019-02-28T02:58:00.133Z,100263.70
2019-02-28T02:58:35.690Z,100263.70
2019-02-28T02:59:11.437Z,100270.52
2019-02-28T02:59:47.113Z,100269.14
2019-02-28T03:00:22.566Z,100275.08
2019-02-28T03:00:57.986Z,100269.39
2019-02-28T03:01:33.511Z,100272.73
2019-02-28T03:02:08.901Z,100263.92
2019-02-28T03:02:44.354Z,100271.06
2019-02-28T03:03:20.326Z,100260.94
2019-02-28T03:03:55.959Z,100266.94
2019-02-28T03:04:31.726Z,100266.94
2019-02-28T03:05:07.735Z,100268.19
2019-02-28T03:05:43.131Z,100268.19
2019-02-28T03:06:18.552Z,100268.69
2019-02-28T03:06:54.255Z,100261.13
2019-02-28T03:07:29.670Z,100261.13
2019-02-28T03:08:05.088Z,100265.10
2019-02-28T03:08:40.496Z,100258.31
2019-02-28T03:09:15.892Z,100264.72
2019-02-28T03:09:51.278Z,100268.13
2019-02-28T03:10:27.131Z,100261.70
2019-02-28T03:11:02.735Z,100262.97
2019-02-28T03:11:38.150Z,100262.97
2019-02-28T03:12:13.542Z,100256.78
2019-02-28T03:12:48.940Z,100262.36
2019-02-28T03:13:24.365Z,100258.17
2019-02-28T03:14:00.370Z,100253.86
2019-02-28T03:14:36.358Z,100258.64
2019-02-28T03:15:12.712Z,100251.97
2019-02-28T03:15:48.129Z,100257.98
2019-02-28T03:16:23.546Z,100256.70
2019-02-28T03:16:59.917Z,100244.86
2019-02-28T03:17:35.313Z,100244.86
2019-02-28T03:18:10.721Z,100247.84
2019-02-28T03:18:46.132Z,100247.84
2019-02-28T03:19:21.579Z,100250.60
2019-02-28T03:19:56.972Z,100251.26
2019-02-28T03:20:32.380Z,100247.56
2019-02-28T03:21:08.048Z,100250.16
2019-02-28T03:21:51.301Z,100245.59
2019-02-28T03:22:28.381Z,100244.45
2019-02-28T03:23:02.133Z,100244.77
2019-02-28T03:23:40.206Z,100229.41
2019-02-28T03:24:15.140Z,100229.41
2019-02-28T03:24:51.099Z,100239.60
2019-02-28T03:25:28.302Z,100239.98
2019-02-28T03:26:07.026Z,100240.27
2019-02-28T03:26:43.244Z,100238.62
2019-02-28T03:27:20.046Z,100236.11
2019-02-28T03:27:56.804Z,100232.28
2019-02-28T03:28:33.353Z,100239.55
2019-02-28T03:29:09.112Z,100238.16
2019-02-28T03:29:44.888Z,100233.16
2019-02-28T03:30:27.800Z,100231.84
2019-02-28T03:30:57.526Z,100231.84
2019-02-28T03:31:33.227Z,100232.95
2019-02-28T03:32:08.900Z,100238.84
2019-02-28T03:32:45.341Z,100231.23
2019-02-28T03:33:27.371Z,100232.88
2019-02-28T03:34:10.440Z,100228.14
2019-02-28T03:34:35.196Z,100232.77
2019-02-28T03:35:10.717Z,100229.67
2019-02-28T03:35:46.140Z,100231.94
2019-02-28T03:36:21.559Z,100231.34
2019-02-28T03:36:57.688Z,100226.19
2019-02-28T03:37:34.623Z,100225.66
2019-02-28T03:38:12.450Z,100215.88
2019-02-28T03:38:49.587Z,100215.88
2019-02-28T03:39:25.796Z,100226.37
2019-02-28T03:40:04.403Z,100218.36
2019-02-28T03:40:40.220Z,100223.09
2019-02-28T03:41:17.753Z,100217.42
2019-02-28T03:41:53.130Z,100224.64
2019-02-28T03:42:30.113Z,100224.64
2019-02-28T03:43:06.996Z,100232.71
2019-02-28T03:43:44.068Z,100223.65
2019-02-28T03:44:21.636Z,100224.94
2019-02-28T03:44:58.196Z,100224.94
2019-02-28T03:45:35.252Z,100230.40
2019-02-28T03:46:11.626Z,100222.74
2019-02-28T03:46:47.945Z,100221.92
2019-02-28T03:47:24.199Z,100221.92
2019-02-28T03:48:00.010Z,100221.52
2019-02-28T03:48:36.292Z,100218.91
2019-02-28T03:49:12.631Z,100221.37
2019-02-28T03:49:49.864Z,100226.19
2019-02-28T03:50:26.482Z,100219.23
2019-02-28T03:51:02.466Z,100218.48
2019-02-28T03:51:38.310Z,100216.40
2019-02-28T03:52:13.707Z,100220.52
2019-02-28T03:52:49.379Z,100222.31
2019-02-28T03:53:24.780Z,100222.31
2019-02-28T03:54:00.197Z,100221.08
2019-02-28T03:54:35.899Z,100220.25
2019-02-28T03:55:11.719Z,100221.19
2019-02-28T03:55:47.107Z,100221.19
2019-02-28T03:56:22.510Z,100221.95
2019-02-28T03:56:58.183Z,100218.64
2019-02-28T03:57:34.771Z,100224.11
2019-02-28T03:58:10.161Z,100221.13
2019-02-28T03:58:45.860Z,100184.71
2019-02-28T03:59:21.357Z,100184.71
2019-02-28T03:59:57.091Z,100220.25
2019-02-28T04:00:34.080Z,100217.66
2019-02-28T04:01:10.332Z,100216.08
2019-02-28T04:01:46.560Z,100220.17
2019-02-28T04:02:22.529Z,100221.98
2019-02-28T04:02:59.095Z,100215.96
2019-02-28T04:03:34.840Z,100215.70
2019-02-28T04:04:12.231Z,100214.09
2019-02-28T04:04:50.156Z,100218.53
2019-02-28T04:05:27.978Z,100223.59
2019-02-28T04:06:03.876Z,100218.62
2019-02-28T04:06:41.000Z,100222.48
2019-02-28T04:07:17.076Z,100224.70
2019-02-28T04:07:54.758Z,100224.70
2019-02-28T04:08:30.735Z,100214.08
2019-02-28T04:09:08.471Z,100214.08
2019-02-28T04:09:45.362Z,100227.56
2019-02-28T04:10:22.441Z,100226.27
2019-02-28T04:10:58.482Z,100225.23
2019-02-28T04:11:34.149Z,100225.23
2019-02-28T04:12:09.567Z,100222.80
2019-02-28T04:12:46.900Z,100223.19
2019-02-28T04:13:22.520Z,100214.23
2019-02-28T04:13:57.926Z,100217.51
2019-02-28T04:14:34.387Z,100227.80
2019-02-28T04:15:11.430Z,100227.80
2019-02-28T04:16:07.780Z,100220.52
2019-02-28T04:16:24.443Z,100223.09
2019-02-28T04:17:00.130Z,100217.63
2019-02-28T04:17:35.517Z,100221.20
2019-02-28T04:18:10.910Z,100225.44
2019-02-28T04:18:46.859Z,100224.55
2019-02-28T04:19:23.046Z,100222.48
2019-02-28T04:20:00.647Z,100222.02
2019-02-28T04:20:37.867Z,100226.87
2019-02-28T04:21:13.370Z,100230.64
2019-02-28T04:21:48.772Z,100227.13
2019-02-28T04:22:24.174Z,100231.42
2019-02-28T04:23:00.322Z,100219.27
2019-02-28T04:23:36.934Z,100231.19
2019-02-28T04:24:13.821Z,100224.84
2019-02-28T04:24:49.572Z,100228.15
2019-02-28T04:25:25.205Z,100225.72
2019-02-28T04:26:00.680Z,100224.41
2019-02-28T04:26:36.053Z,100228.41
2019-02-28T04:27:11.464Z,100226.34
2019-02-28T04:27:46.846Z,100226.34
2019-02-28T04:28:22.258Z,100225.99
2019-02-28T04:29:00.503Z,100222.48
2019-02-28T04:29:36.678Z,100224.12
2019-02-28T04:30:12.579Z,100227.45
2019-02-28T04:30:49.326Z,100227.10
2019-02-28T04:31:25.063Z,100221.02
2019-02-28T04:32:00.821Z,100220.31
2019-02-28T04:32:36.478Z,100225.90
2019-02-28T04:33:11.871Z,100220.61
2019-02-28T04:33:47.365Z,100225.38
2019-02-28T04:34:23.286Z,100229.73
2019-02-28T04:34:58.726Z,100226.25
2019-02-28T04:35:34.113Z,100221.42
2019-02-28T04:36:09.516Z,100221.42
2019-02-28T04:36:44.919Z,100216.22
2019-02-28T04:37:20.307Z,100226.19
2019-02-28T04:37:55.986Z,100215.58
2019-02-28T04:38:31.391Z,100226.69
2019-02-28T04:39:07.415Z,100226.13
2019-02-28T04:39:42.800Z,100226.13
2019-02-28T04:40:18.252Z,100224.47
2019-02-28T04:40:53.627Z,100221.02
2019-02-28T04:41:32.400Z,100217.66
2019-02-28T04:42:06.431Z,100224.55
2019-02-28T04:42:41.839Z,100220.73
2019-02-28T04:43:17.566Z,100212.31
2019-02-28T04:43:52.992Z,100210.13
2019-02-28T04:44:28.638Z,100210.13
2019-02-28T04:45:04.483Z,100209.18
2019-02-28T04:45:39.906Z,100209.18
2019-02-28T04:46:15.303Z,100212.72
2019-02-28T04:46:50.704Z,100209.73
2019-02-28T04:47:26.405Z,100212.59
2019-02-28T04:48:01.821Z,100214.53
2019-02-28T04:48:37.201Z,100198.48
2019-02-28T04:49:12.626Z,100208.77
2019-02-28T04:49:48.036Z,100210.47
2019-02-28T04:50:24.360Z,100200.38
2019-02-28T04:51:02.255Z,100200.38
2019-02-28T04:51:37.113Z,100215.14
2019-02-28T04:52:14.002Z,100215.14
2019-02-28T04:52:49.917Z,100204.80
2019-02-28T04:53:25.413Z,100203.98
2019-02-28T04:54:00.827Z,100207.48
2019-02-28T04:54:36.256Z,100207.48
2019-02-28T04:55:11.776Z,100208.86
2019-02-28T04:55:47.189Z,100202.17
2019-02-28T04:56:22.583Z,100201.78
2019-02-28T04:56:57.981Z,100208.66
2019-02-28T04:57:33.638Z,100205.09
2019-02-28T04:58:09.283Z,100205.09
2019-02-28T04:58:44.682Z,100211.08
2019-02-28T04:59:20.647Z,100211.08
2019-02-28T04:59:56.053Z,100206.87
2019-02-28T05:00:31.494Z,100209.53
2019-02-28T05:01:09.209Z,100206.93
2019-02-28T05:01:46.174Z,100210.47
2019-02-28T05:02:21.392Z,100206.37
2019-02-28T05:02:56.792Z,100206.37
2019-02-28T05:03:32.243Z,100211.02
2019-02-28T05:04:07.896Z,100207.08
2019-02-28T05:04:43.325Z,100211.02
2019-02-28T05:05:19.022Z,100209.80
2019-02-28T05:05:54.441Z,100213.77
2019-02-28T05:06:30.371Z,100213.77
2019-02-28T05:07:06.129Z,100212.10
2019-02-28T05:07:42.129Z,100210.52
2019-02-28T05:08:17.571Z,100211.34
2019-02-28T05:08:52.973Z,100216.08
2019-02-28T05:09:28.408Z,100218.50
2019-02-28T05:10:03.823Z,100215.79
2019-02-28T05:10:39.332Z,100212.22
2019-02-28T05:11:14.738Z,100212.22
2019-02-28T05:11:50.396Z,100215.67
2019-02-28T05:12:25.825Z,100214.79
2019-02-28T05:13:01.523Z,100214.79
2019-02-28T05:13:36.968Z,100217.63
2019-02-28T05:14:12.370Z,100214.18
2019-02-28T05:14:48.104Z,100214.18
2019-02-28T05:15:23.494Z,100216.40
2019-02-28T05:15:59.226Z,100213.83
2019-02-28T05:16:34.647Z,100210.50
2019-02-28T05:17:10.061Z,100210.50
2019-02-28T05:17:45.713Z,100217.59
2019-02-28T05:18:21.540Z,100209.88
2019-02-28T05:18:58.286Z,100218.91
2019-02-28T05:19:35.724Z,100218.91
2019-02-28T05:20:12.292Z,100216.75
2019-02-28T05:20:47.941Z,100216.75
2019-02-28T05:21:23.362Z,100212.52
2019-02-28T05:21:58.771Z,100213.83
2019-02-28T05:22:34.285Z,100209.06
2019-02-28T05:23:09.691Z,100220.20
2019-02-28T05:23:45.081Z,100217.02
2019-02-28T05:24:20.473Z,100215.03
2019-02-28T05:24:55.889Z,100215.47
2019-02-28T05:25:31.293Z,100211.44
2019-02-28T05:26:06.713Z,100211.44
2019-02-28T05:26:42.094Z,100211.72
2019-02-28T05:27:17.492Z,100212.28
2019-02-28T05:27:52.877Z,100213.13
2019-02-28T05:28:28.306Z,100211.95
2019-02-28T05:29:03.718Z,100211.95
2019-02-28T05:29:39.375Z,100214.20
2019-02-28T05:30:18.140Z,100214.06
2019-02-28T05:30:53.732Z,100214.65
2019-02-28T05:31:29.213Z,100214.65
2019-02-28T05:32:04.872Z,100209.13
2019-02-28T05:32:40.539Z,100217.08
2019-02-28T05:33:16.278Z,100214.59
2019-02-28T05:33:51.685Z,100212.13
2019-02-28T05:34:27.351Z,100215.96
2019-02-28T05:35:02.773Z,100215.47
2019-02-28T05:35:38.222Z,100212.19
2019-02-28T05:36:13.602Z,100217.54
2019-02-28T05:36:49.252Z,100214.70
2019-02-28T05:37:24.925Z,100212.63
2019-02-28T05:38:00.440Z,100212.63
2019-02-28T05:38:36.070Z,100215.91
2019-02-28T05:39:11.502Z,100203.63
2019-02-28T05:39:47.229Z,100218.97
2019-02-28T05:40:22.645Z,100218.50
2019-02-28T05:40:58.378Z,100214.35
2019-02-28T05:41:36.174Z,100214.33
2019-02-28T05:42:11.224Z,100214.33
2019-02-28T05:42:46.865Z,100217.59
2019-02-28T05:43:22.272Z,100223.21
2019-02-28T05:43:57.688Z,100222.77
2019-02-28T05:44:33.377Z,100227.63
2019-02-28T05:45:11.306Z,100227.63
2019-02-28T05:45:49.577Z,100227.41
2019-02-28T05:46:24.594Z,100224.25
2019-02-28T05:47:00.082Z,100224.25
2019-02-28T05:47:45.816Z,100232.38
2019-02-28T05:48:12.599Z,100234.10
2019-02-28T05:48:47.989Z,100227.45
2019-02-28T05:49:23.381Z,100232.77
2019-02-28T05:49:59.118Z,100232.77
2019-02-28T05:50:34.534Z,100233.64
2019-02-28T05:51:10.058Z,100226.03
2019-02-28T05:51:46.625Z,100223.46
2019-02-28T05:52:22.061Z,100227.79
2019-02-28T05:52:57.549Z,100232.77
2019-02-28T05:53:33.007Z,100232.77
2019-02-28T05:54:08.739Z,100225.34
2019-02-28T05:54:44.145Z,100228.84
2019-02-28T05:55:24.621Z,100234.98
2019-02-28T05:55:59.710Z,100234.98
2019-02-28T05:56:34.075Z,100231.39
2019-02-28T05:57:09.589Z,100231.77
2019-02-28T05:57:45.059Z,100228.38
2019-02-28T05:58:20.962Z,100242.09
2019-02-28T05:58:56.355Z,100241.82
2019-02-28T05:59:31.773Z,100241.82
2019-02-28T06:00:07.888Z,100239.66
2019-02-28T06:00:43.560Z,100239.66
2019-02-28T06:01:18.989Z,100239.41
2019-02-28T06:01:54.659Z,100245.05
2019-02-28T06:02:30.189Z,100245.05
2019-02-28T06:03:05.597Z,100240.45
2019-02-28T06:03:41.011Z,100241.63
2019-02-28T06:04:16.990Z,100241.63
2019-02-28T06:04:52.514Z,100240.06
2019-02-28T06:05:28.005Z,100241.71
2019-02-28T06:06:03.753Z,100239.17
2019-02-28T06:06:39.164Z,100252.22
2019-02-28T06:07:14.569Z,100236.13
2019-02-28T06:07:50.029Z,100238.08
2019-02-28T06:08:25.469Z,100244.58
2019-02-28T06:09:01.363Z,100243.44
2019-02-28T06:09:37.051Z,100247.29
2019-02-28T06:10:12.448Z,100244.77
2019-02-28T06:10:47.849Z,100238.84
2019-02-28T06:11:23.532Z,100247.40
2019-02-28T06:11:59.271Z,100241.79
2019-02-28T06:12:34.957Z,100241.79
2019-02-28T06:13:10.379Z,100247.34
2019-02-28T06:13:45.761Z,100237.12
2019-02-28T06:14:26.692Z,100237.12
2019-02-28T06:15:02.196Z,100240.97
2019-02-28T06:15:37.127Z,100236.65
2019-02-28T06:16:13.051Z,100243.48
2019-02-28T06:16:48.478Z,100239.63
2019-02-28T06:17:24.141Z,100247.84
2019-02-28T06:17:59.601Z,100245.75
2019-02-28T06:18:34.994Z,100248.30
2019-02-28T06:19:10.383Z,100248.30
2019-02-28T06:19:49.321Z,100244.88
2019-02-28T06:20:25.017Z,100247.02
2019-02-28T06:21:00.753Z,100247.02
2019-02-28T06:21:36.476Z,100251.69
2019-02-28T06:22:11.887Z,100248.78
2019-02-28T06:22:47.594Z,100253.87
2019-02-28T06:23:23.243Z,100250.07
2019-02-28T06:23:58.947Z,100250.07
2019-02-28T06:24:34.670Z,100256.03
2019-02-28T06:25:10.369Z,100256.03
2019-02-28T06:25:45.792Z,100245.29
2019-02-28T06:26:21.213Z,100247.50
2019-02-28T06:26:57.045Z,100245.31
2019-02-28T06:27:41.240Z,100249.17
2019-02-28T06:28:09.496Z,100244.03
2019-02-28T06:28:44.909Z,100244.03
2019-02-28T06:29:20.304Z,100246.87
2019-02-28T06:29:55.717Z,100253.72
2019-02-28T06:30:31.461Z,100256.40
2019-02-28T06:31:07.165Z,100257.70
2019-02-28T06:31:45.516Z,100249.42
2019-02-28T06:32:23.284Z,100255.41
2019-02-28T06:32:59.072Z,100255.41
2019-02-28T06:33:34.434Z,100257.52
2019-02-28T06:34:10.160Z,100262.83
2019-02-28T06:34:45.549Z,100255.49
2019-02-28T06:35:21.208Z,100260.37
2019-02-28T06:35:56.919Z,100253.74
2019-02-28T06:36:32.595Z,100253.74
2019-02-28T06:37:08.248Z,100262.97
2019-02-28T06:37:43.656Z,100254.13
2019-02-28T06:38:19.915Z,100254.84
2019-02-28T06:38:55.551Z,100254.41
2019-02-28T06:39:31.553Z,100252.05
2019-02-28T06:40:08.380Z,100252.05
2019-02-28T06:40:43.807Z,100255.55
2019-02-28T06:41:19.497Z,100244.95
2019-02-28T06:41:55.003Z,100248.69
2019-02-28T06:42:30.693Z,100248.69
2019-02-28T06:43:06.352Z,100251.64
2019-02-28T06:43:44.245Z,100248.05
2019-02-28T06:44:19.181Z,100254.11
2019-02-28T06:44:54.668Z,100255.52
2019-02-28T06:45:30.091Z,100259.27
2019-02-28T06:46:08.547Z,100259.27
2019-02-28T06:46:43.438Z,100258.13
2019-02-28T06:47:18.963Z,100259.70
2019-02-28T06:47:54.632Z,100262.17
2019-02-28T06:48:30.172Z,100250.41
2019-02-28T06:49:07.151Z,100250.41
2019-02-28T06:49:42.562Z,100255.09